createdAt,value
2023-01-31T00:04:49.173Z,93.22
2023-01-31T00:10:51.064Z,92.72
2023-01-31T00:16:53.733Z,92.95
2023-01-31T00:22:55.638Z,93.19
2023-01-31T00:28:59.748Z,93.94
2023-01-31T00:35:01.608Z,93.43
2023-01-31T00:41:04.490Z,94.27
2023-01-31T00:47:06.531Z,93.91
2023-01-31T00:53:08.599Z,95.35
2023-01-31T00:59:11.263Z,96.48
2023-01-31T01:05:13.553Z,96.31
2023-01-31T01:11:28.367Z,95.95
2023-01-31T01:17:30.288Z,96.06
2023-01-31T01:23:32.243Z,95.83
2023-01-31T01:29:34.962Z,95.96
2023-01-31T01:35:36.868Z,95.02
2023-01-31T01:41:40.398Z,93.49
2023-01-31T01:47:55.094Z,92.87
2023-01-31T01:54:03.460Z,92.19
2023-01-31T02:00:30.239Z,91.55
2023-01-31T02:06:32.288Z,91.53
2023-01-31T02:12:36.028Z,91.18
2023-01-31T02:18:38.064Z,90.75
2023-01-31T02:25:24.228Z,89.87
2023-01-31T02:32:05.854Z,90.33
2023-01-31T02:38:31.894Z,90.06
2023-01-31T02:45:00.528Z,90.51
2023-01-31T02:51:19.830Z,91.14
2023-01-31T02:57:22.356Z,91.68
2023-01-31T03:03:36.681Z,91.90
2023-01-31T03:10:17.240Z,91.40
2023-01-31T03:16:47.884Z,92.51
2023-01-31T03:23:02.162Z,91.81
2023-01-31T03:29:06.821Z,91.76
2023-01-31T03:35:09.891Z,93.08
2023-01-31T03:41:21.937Z,94.13
2023-01-31T03:47:41.761Z,93.02
2023-01-31T03:53:53.316Z,92.79
2023-01-31T04:00:00.141Z,92.12
2023-01-31T04:06:02.132Z,91.09
2023-01-31T04:12:05.129Z,90.45
2023-01-31T04:18:07.004Z,90.09
2023-01-31T04:24:10.391Z,89.65
2023-01-31T04:30:12.988Z,88.78
2023-01-31T04:36:14.853Z,88.29
2023-01-31T04:42:16.968Z,88.05
2023-01-31T04:48:18.852Z,88.18
2023-01-31T04:54:21.464Z,88.43
2023-01-31T05:00:23.392Z,87.74
2023-01-31T05:06:25.345Z,88.20
2023-01-31T05:12:28.486Z,87.59
2023-01-31T05:18:30.365Z,86.96
2023-01-31T05:24:33.886Z,87.07
2023-01-31T05:30:37.204Z,87.24
2023-01-31T05:36:39.234Z,87.34
2023-01-31T05:42:41.560Z,87.45
2023-01-31T05:48:43.455Z,88.09
2023-01-31T05:54:45.364Z,87.81
2023-01-31T06:00:47.274Z,88.04
2023-01-31T06:06:49.151Z,88.27
2023-01-31T06:12:51.080Z,88.15
2023-01-31T06:18:53.074Z,88.77
2023-01-31T06:24:54.987Z,89.18
2023-01-31T06:30:56.981Z,89.75
2023-01-31T06:36:59.125Z,89.93
2023-01-31T06:43:01.046Z,91.30
2023-01-31T06:49:03.205Z,92.05
2023-01-31T06:55:05.673Z,92.03
2023-01-31T07:01:10.447Z,93.15
2023-01-31T07:07:12.374Z,92.76
2023-01-31T07:13:15.025Z,93.23
2023-01-31T07:19:16.904Z,92.69
2023-01-31T07:25:19.083Z,92.79
2023-01-31T07:31:21.744Z,91.42
2023-01-31T07:37:23.677Z,91.86
2023-01-31T07:43:25.608Z,92.10
2023-01-31T07:49:27.484Z,90.16
2023-01-31T07:55:29.837Z,89.29
2023-01-31T08:01:50.943Z,88.92
2023-01-31T08:08:10.265Z,87.75
2023-01-31T08:14:12.550Z,88.03
2023-01-31T08:20:14.435Z,87.43
2023-01-31T08:26:20.022Z,86.73
2023-01-31T08:32:22.198Z,87.84
2023-01-31T08:38:24.215Z,86.66
2023-01-31T08:44:26.091Z,87.30
2023-01-31T08:50:32.696Z,87.33
2023-01-31T08:56:34.750Z,87.06
2023-01-31T09:02:36.672Z,87.12
2023-01-31T09:08:38.663Z,86.26
2023-01-31T09:14:40.543Z,86.71
2023-01-31T09:20:42.495Z,85.07
2023-01-31T09:26:44.406Z,86.31
2023-01-31T09:32:46.469Z,85.93
2023-01-31T09:38:48.956Z,85.15
2023-01-31T09:44:59.263Z,83.26
2023-01-31T09:51:03.345Z,83.35
2023-01-31T09:58:00.562Z,83.79
2023-01-31T10:04:24.767Z,83.99
2023-01-31T10:10:32.577Z,84.35
2023-01-31T10:16:45.782Z,85.60
2023-01-31T10:23:04.262Z,87.32
2023-01-31T10:29:39.328Z,88.10
2023-01-31T10:35:44.953Z,89.92
2023-01-31T10:41:52.862Z,90.90
2023-01-31T10:48:11.260Z,94.06
2023-01-31T10:54:22.209Z,97.29
2023-01-31T11:00:33.070Z,99.00
2023-01-31T11:06:34.959Z,99.68
2023-01-31T11:12:51.888Z,100.00
2023-01-31T11:18:54.293Z,100.00
2023-01-31T11:24:58.729Z,100.00
2023-01-31T11:31:01.608Z,100.00
2023-01-31T11:37:16.849Z,100.00
2023-01-31T11:43:24.538Z,100.00
2023-01-31T11:49:36.559Z,100.00
2023-01-31T11:55:39.537Z,100.00
2023-01-31T12:01:50.361Z,100.00
2023-01-31T12:07:57.128Z,100.00
2023-01-31T12:14:14.777Z,100.00
2023-01-31T12:20:32.832Z,100.00
2023-01-31T12:27:11.655Z,100.00
2023-01-31T12:33:43.818Z,100.00
2023-01-31T12:40:24.549Z,100.00
2023-01-31T12:47:08.512Z,100.00
2023-01-31T12:53:42.440Z,100.00
2023-01-31T13:00:14.380Z,100.00
2023-01-31T13:06:38.320Z,100.00
2023-01-31T13:12:41.238Z,100.00
2023-01-31T13:18:46.765Z,100.00
2023-01-31T13:24:59.389Z,100.00
2023-01-31T13:31:08.832Z,100.00
2023-01-31T13:37:20.789Z,100.00
2023-01-31T13:43:22.724Z,100.00
2023-01-31T13:49:28.964Z,100.00
2023-01-31T13:55:45.357Z,100.00
2023-01-31T14:01:50.534Z,100.00
2023-01-31T14:08:35.836Z,100.00
2023-01-31T14:14:51.312Z,100.00
2023-01-31T14:20:53.206Z,100.00
2023-01-31T14:26:55.480Z,100.00
2023-01-31T14:33:12.879Z,100.00
2023-01-31T14:39:41.135Z,100.00
2023-01-31T14:46:02.805Z,100.00
2023-01-31T14:52:35.038Z,100.00
2023-01-31T14:58:43.234Z,100.00
2023-01-31T15:04:57.978Z,100.00
2023-01-31T15:11:40.219Z,100.00
2023-01-31T15:17:44.850Z,100.00
2023-01-31T15:23:48.165Z,100.00
2023-01-31T15:29:59.252Z,100.00
2023-01-31T15:36:09.476Z,100.00
2023-01-31T15:42:28.139Z,100.00
2023-01-31T15:48:30.044Z,100.00
2023-01-31T15:54:32.029Z,100.00
2023-01-31T16:00:37.983Z,100.00
2023-01-31T16:06:40.401Z,100.00
2023-01-31T16:12:47.896Z,100.00
2023-01-31T16:18:57.885Z,100.00
2023-01-31T16:25:03.622Z,100.00
2023-01-31T16:31:16.581Z,100.00
2023-01-31T16:37:46.870Z,100.00
2023-01-31T16:43:51.340Z,100.00
2023-01-31T16:50:41.976Z,100.00
2023-01-31T16:57:01.329Z,100.00
2023-01-31T17:03:12.340Z,99.99
2023-01-31T17:09:20.123Z,98.16
2023-01-31T17:15:22.421Z,98.16
2023-01-31T17:21:26.768Z,96.58
2023-01-31T17:27:28.679Z,96.36
2023-01-31T17:33:30.592Z,95.57
2023-01-31T17:39:32.549Z,94.90
2023-01-31T17:45:34.508Z,93.72
2023-01-31T17:51:36.476Z,93.56
2023-01-31T17:57:38.739Z,93.08
2023-01-31T18:03:41.673Z,93.61
2023-01-31T18:09:43.962Z,93.98
2023-01-31T18:15:45.936Z,94.17
2023-01-31T18:21:55.043Z,94.57
2023-01-31T18:27:58.707Z,96.34
2023-01-31T18:34:00.672Z,96.20
2023-01-31T18:40:02.619Z,94.67
2023-01-31T18:46:05.827Z,93.94
2023-01-31T18:52:08.480Z,94.24
2023-01-31T18:58:10.435Z,93.57
2023-01-31T19:04:12.566Z,94.43
2023-01-31T19:10:15.128Z,94.71
2023-01-31T19:16:26.629Z,94.21
2023-01-31T19:22:29.081Z,92.49
2023-01-31T19:28:30.976Z,92.12
2023-01-31T19:34:33.416Z,91.69
2023-01-31T19:40:35.334Z,90.90
2023-01-31T19:46:37.891Z,89.22
2023-01-31T19:52:39.762Z,88.40
2023-01-31T19:58:42.765Z,86.78
2023-01-31T20:04:45.278Z,87.47
2023-01-31T20:10:47.461Z,87.29
2023-01-31T20:16:49.450Z,87.47
2023-01-31T20:22:51.465Z,86.18
2023-01-31T20:28:53.355Z,85.42
2023-01-31T20:34:55.244Z,85.68
2023-01-31T20:40:57.644Z,85.82
2023-01-31T20:46:59.563Z,85.21
2023-01-31T20:53:01.451Z,84.41
2023-01-31T20:59:03.347Z,85.50
2023-01-31T21:05:05.676Z,85.21
2023-01-31T21:11:10.963Z,84.76
2023-01-31T21:17:14.062Z,83.68
2023-01-31T21:23:16.017Z,82.78
2023-01-31T21:29:18.081Z,83.29
2023-01-31T21:35:20.118Z,83.18
2023-01-31T21:41:47.908Z,83.81
2023-01-31T21:48:08.267Z,83.81
2023-01-31T21:54:10.218Z,83.24
2023-01-31T22:00:13.978Z,82.76
2023-01-31T22:06:20.905Z,82.91
2023-01-31T22:12:22.794Z,82.60
2023-01-31T22:18:24.719Z,82.82
2023-01-31T22:24:26.634Z,83.73
2023-01-31T22:30:28.735Z,83.23
2023-01-31T22:36:31.916Z,83.77
2023-01-31T22:42:33.787Z,84.18
2023-01-31T22:48:36.274Z,84.79
2023-01-31T22:54:38.157Z,83.59
2023-01-31T23:00:40.914Z,83.74
2023-01-31T23:06:42.798Z,82.97
2023-01-31T23:12:44.709Z,82.84
2023-01-31T23:18:47.141Z,82.92
2023-01-31T23:24:49.041Z,83.54
2023-01-31T23:30:51.027Z,82.97
2023-01-31T23:36:52.974Z,83.84
2023-01-31T23:42:54.894Z,84.75
2023-01-31T23:48:56.775Z,84.29
2023-01-31T23:54:59.843Z,85.20
